If you wish to contribute or participate in the discussions about articles you are invited to join SKYbrary as a registered user

 Actions

RAF Woodvale

From SKYbrary Wiki

EGOW
Airport
ICAO: EGOW
Summary
Name RAF Woodvale
Region Europe
Territory United Kingdom GB.gif
Location , England
Serving Woodvale
Elevation 11.278 m
37 ft
37 ft11.278 m
Type small airport
Coordinates 53° 34' 53.67" N, 3° 3' 19.88" W
Runways
Designator Length Width Surface ROPS
3/21 1647 m5,403.543 ft
46 m150.919 ft
ASP /
8/26 1068 m3,503.937 ft
45 m147.638 ft
ASP /
16/34 1003 m3,290.682 ft
45 m147.638 ft
/


METAR
Observation EGOW 111550Z 26011KT 9999 -RA FEW010 SCT025 06/04 Q0998 RMK BLU
Station Woodvale
Date/Time 11 December 2019 15:50:00
Wind direction 260°
Wind speed 11 kts
Lowest cloud amount few clouds
Temperature 6°C
Dew point 4°C
Humidity 86%
QNH 998 hPa
Weather condition light rain